Time;durP1;ratioP1;P1;durP2;ratioP2;P2;SDS_P1;SDS_P2;PMS_P1;PMS_P2;Temp;Humidity;BMP_temperature;BMP_pressure;BME280_temperature;BME280_humidity;BME280_pressure;Samples;Min_cycle;Max_cycle;Signal;HPM_P1;HPM_P2
2023/11/21 00:02:18;;;;;;;19.73;10.63;;;7.70;99.90;;;;;;5015387;28;20053;-61
2023/11/21 00:04:43;;;;;;;20.40;10.32;;;7.70;99.90;;;;;;5019550;28;20033;-59
2023/11/21 00:07:09;;;;;;;22.48;10.10;;;7.70;99.90;;;;;;5013889;28;20037;-59
2023/11/21 00:09:36;;;;;;;18.90;9.75;;;7.70;99.90;;;;;;5014864;28;20076;-60
2023/11/21 00:12:02;;;;;;;16.48;9.13;;;7.70;99.90;;;;;;5018569;28;20040;-62
2023/11/21 00:14:27;;;;;;;19.85;8.85;;;7.60;99.90;;;;;;5016249;28;20030;-59
2023/11/21 00:16:53;;;;;;;21.08;9.23;;;7.60;99.90;;;;;;5018828;28;20790;-60
2023/11/21 00:19:19;;;;;;;22.85;10.50;;;7.60;99.90;;;;;;5020399;28;20075;-60
2023/11/21 00:21:45;;;;;;;21.35;10.70;;;7.60;99.90;;;;;;5016208;28;20045;-59
2023/11/21 00:24:13;;;;;;;22.60;11.00;;;7.50;99.90;;;;;;5025779;28;20602;-60
2023/11/21 00:26:39;;;;;;;26.55;12.13;;;7.50;99.90;;;;;;5022436;28;20087;-60
2023/11/21 00:29:08;;;;;;;25.15;11.27;;;7.50;99.90;;;;;;5009917;28;20477;-60
2023/11/21 00:31:35;;;;;;;17.90;9.52;;;7.40;99.90;;;;;;5010972;28;20083;-60
2023/11/21 00:34:05;;;;;;;19.83;10.43;;;7.30;99.90;;;;;;5012527;28;20025;-60
2023/11/21 00:36:31;;;;;;;22.48;11.25;;;7.20;99.90;;;;;;5009246;28;20033;-59
2023/11/21 00:38:57;;;;;;;17.48;9.80;;;7.20;99.90;;;;;;5019093;28;20025;-60
2023/11/21 00:41:23;;;;;;;24.25;11.43;;;7.20;99.90;;;;;;5020124;28;20050;-59
2023/11/21 00:43:48;;;;;;;28.00;13.35;;;7.10;99.90;;;;;;5017000;28;20030;-59
2023/11/21 00:46:14;;;;;;;32.10;14.18;;;7.00;99.90;;;;;;5020561;28;20032;-61
2023/11/21 00:48:39;;;;;;;27.08;12.85;;;7.10;99.90;;;;;;5018142;28;20104;-61
2023/11/21 00:51:06;;;;;;;32.20;14.25;;;7.00;99.90;;;;;;5018391;28;20030;-63
2023/11/21 00:53:32;;;;;;;31.15;15.63;;;7.00;99.90;;;;;;5012071;28;20405;-61
2023/11/21 00:55:57;;;;;;;27.85;14.10;;;6.90;99.90;;;;;;5019515;28;20024;-62
2023/11/21 00:58:26;;;;;;;26.80;13.23;;;6.80;99.90;;;;;;5014921;28;20044;-60
2023/11/21 01:00:51;;;;;;;29.10;15.90;;;6.80;99.90;;;;;;5013980;28;20030;-58
2023/11/21 01:03:17;;;;;;;37.63;19.65;;;6.70;99.90;;;;;;5019911;28;20443;-61
2023/11/21 01:05:42;;;;;;;36.45;18.38;;;6.70;99.90;;;;;;5014045;28;20045;-61
2023/11/21 01:08:08;;;;;;;33.92;18.48;;;6.70;99.90;;;;;;5015722;28;20547;-60
2023/11/21 01:10:36;;;;;;;33.22;17.58;;;6.50;99.90;;;;;;5019360;28;20034;-62
2023/11/21 01:13:05;;;;;;;36.67;19.23;;;6.50;99.90;;;;;;5014487;28;20072;-60
2023/11/21 01:15:30;;;;;;;33.72;18.20;;;6.50;99.90;;;;;;5010138;28;20018;-60
2023/11/21 01:17:56;;;;;;;32.05;17.10;;;6.50;99.90;;;;;;5015427;28;20033;-61
2023/11/21 01:20:21;;;;;;;26.38;14.85;;;6.40;99.90;;;;;;5015455;28;20021;-60
2023/11/21 01:22:49;;;;;;;29.55;16.00;;;6.40;99.90;;;;;;5013458;28;20069;-60
2023/11/21 01:25:15;;;;;;;26.88;13.52;;;6.30;99.90;;;;;;5015090;28;20029;-60
2023/11/21 01:27:42;;;;;;;22.92;13.10;;;6.40;99.90;;;;;;5015066;28;20607;-61
2023/11/21 01:30:10;;;;;;;22.27;13.35;;;6.40;99.90;;;;;;5013212;28;20104;-59
2023/11/21 01:32:36;;;;;;;25.63;15.75;;;6.40;99.90;;;;;;5013244;28;20022;-60
2023/11/21 01:35:01;;;;;;;23.75;13.05;;;6.30;99.90;;;;;;5017317;28;20378;-59
2023/11/21 01:37:27;;;;;;;23.63;13.30;;;6.30;99.90;;;;;;5009499;28;20060;-60
2023/11/21 01:39:54;;;;;;;25.23;14.02;;;6.20;99.90;;;;;;5014335;28;20026;-60
2023/11/21 01:42:20;;;;;;;26.95;14.35;;;6.20;99.90;;;;;;5016619;28;20529;-61
2023/11/21 01:44:46;;;;;;;28.55;15.60;;;6.20;99.90;;;;;;5016008;28;20105;-60
2023/11/21 01:47:13;;;;;;;29.75;14.50;;;6.10;99.90;;;;;;5013949;28;20049;-60
2023/11/21 01:49:38;;;;;;;26.80;14.48;;;6.10;99.90;;;;;;5017246;28;20440;-59
2023/11/21 01:52:04;;;;;;;25.88;13.35;;;6.00;99.90;;;;;;5015220;28;20033;-61
2023/11/21 01:54:31;;;;;;;29.30;15.02;;;6.00;99.90;;;;;;5016831;28;20489;-61
2023/11/21 01:57:02;;;;;;;23.92;12.52;;;6.00;99.90;;;;;;5008961;28;20744;-61
2023/11/21 01:59:34;;;;;;;30.02;13.82;;;6.00;99.90;;;;;;5014093;28;20105;-61
2023/11/21 02:01:59;;;;;;;30.33;15.23;;;6.00;99.90;;;;;;5016680;28;20034;-61
2023/11/21 02:04:25;;;;;;;37.38;16.35;;;5.90;99.90;;;;;;5011452;28;20030;-60
2023/11/21 02:06:50;;;;;;;35.70;16.63;;;5.90;99.90;;;;;;5015382;28;20039;-61
2023/11/21 02:09:17;;;;;;;31.85;15.63;;;5.90;99.90;;;;;;5016333;28;20481;-61
2023/11/21 02:11:43;;;;;;;33.65;14.40;;;5.90;99.90;;;;;;5013523;28;20032;-58
2023/11/21 02:14:09;;;;;;;32.45;14.32;;;5.90;99.90;;;;;;5014872;28;20028;-60
2023/11/21 02:16:35;;;;;;;33.08;15.27;;;5.80;99.90;;;;;;5019199;28;20108;-61
2023/11/21 02:19:03;;;;;;;30.40;13.68;;;5.80;99.90;;;;;;5012798;28;20578;-60
2023/11/21 02:21:30;;;;;;;39.00;16.27;;;5.80;99.90;;;;;;5019997;28;20053;-60
2023/11/21 02:23:55;;;;;;;38.88;16.55;;;5.80;99.90;;;;;;5023175;28;20052;-60
2023/11/21 02:26:21;;;;;;;34.42;15.52;;;5.80;99.90;;;;;;5027296;28;20537;-60
2023/11/21 02:28:46;;;;;;;32.90;15.55;;;5.80;99.90;;;;;;5020496;28;20025;-63
2023/11/21 02:31:12;;;;;;;39.78;16.00;;;5.70;99.90;;;;;;5022218;28;20319;-55
2023/11/21 02:33:37;;;;;;;35.33;14.82;;;5.70;99.90;;;;;;5020542;28;20076;-55
2023/11/21 02:36:03;;;;;;;29.70;13.07;;;5.70;99.90;;;;;;5018274;28;20497;-53
2023/11/21 02:38:29;;;;;;;27.80;14.27;;;5.70;99.90;;;;;;5019878;28;20049;-54
2023/11/21 02:40:57;;;;;;;28.23;12.57;;;5.80;99.90;;;;;;5020161;28;20026;-54
2023/11/21 02:43:22;;;;;;;26.58;12.23;;;5.70;99.90;;;;;;5024817;28;20112;-53
2023/11/21 02:45:48;;;;;;;31.15;14.30;;;5.70;99.90;;;;;;5025954;28;20147;-54
2023/11/21 02:48:13;;;;;;;32.95;13.45;;;5.70;99.90;;;;;;5019953;28;20026;-55
2023/11/21 02:50:39;;;;;;;27.95;12.82;;;5.70;99.90;;;;;;5020121;28;20029;-54
2023/11/21 02:53:07;;;;;;;26.05;12.55;;;5.70;99.90;;;;;;5016800;28;20030;-55
2023/11/21 02:55:35;;;;;;;22.30;10.75;;;5.70;99.90;;;;;;5021515;28;20025;-53
2023/11/21 02:58:01;;;;;;;23.92;11.30;;;5.70;99.90;;;;;;5021792;28;20029;-54
2023/11/21 03:00:27;;;;;;;20.75;11.20;;;5.70;99.90;;;;;;5019768;28;20042;-56
2023/11/21 03:02:54;;;;;;;16.90;9.48;;;5.60;99.90;;;;;;5030420;28;20477;-52
2023/11/21 03:05:20;;;;;;;17.08;9.55;;;5.60;99.90;;;;;;5019729;28;20032;-55
2023/11/21 03:07:45;;;;;;;15.05;8.93;;;5.60;99.90;;;;;;5019966;28;20025;-54
2023/11/21 03:10:11;;;;;;;17.50;9.60;;;5.60;99.90;;;;;;5019692;28;20026;-55
2023/11/21 03:12:37;;;;;;;15.02;8.98;;;5.60;99.90;;;;;;5019696;28;20477;-55
2023/11/21 03:15:05;;;;;;;15.63;9.20;;;5.50;99.90;;;;;;5019868;28;20022;-56
2023/11/21 03:17:31;;;;;;;12.73;8.15;;;5.50;99.90;;;;;;5019555;28;20115;-54
2023/11/21 03:19:57;;;;;;;11.88;6.45;;;5.50;99.90;;;;;;5025439;28;20493;-54
2023/11/21 03:22:23;;;;;;;11.98;7.05;;;5.50;99.90;;;;;;5024132;28;20116;-55
2023/11/21 03:24:49;;;;;;;14.40;7.65;;;5.50;99.90;;;;;;5019630;28;20032;-56
2023/11/21 03:27:14;;;;;;;11.10;7.05;;;5.50;99.90;;;;;;5023855;28;20385;-55
2023/11/21 03:29:39;;;;;;;13.90;7.28;;;5.50;99.90;;;;;;5020769;28;20477;-53
2023/11/21 03:32:06;;;;;;;12.35;7.88;;;5.40;99.90;;;;;;5018718;28;20034;-55
2023/11/21 03:34:32;;;;;;;12.45;7.20;;;5.40;99.90;;;;;;5027873;28;20143;-55
2023/11/21 03:36:58;;;;;;;13.43;7.93;;;5.40;99.90;;;;;;5018372;28;20521;-53
2023/11/21 03:39:25;;;;;;;11.98;6.97;;;5.40;99.90;;;;;;5026342;28;20040;-54
2023/11/21 03:41:51;;;;;;;13.43;6.95;;;5.40;99.90;;;;;;5025123;28;20143;-52
2023/11/21 03:44:17;;;;;;;12.07;7.05;;;5.40;99.90;;;;;;5023360;28;20029;-56
2023/11/21 03:46:43;;;;;;;13.27;7.18;;;5.30;99.90;;;;;;5024227;28;20082;-52
2023/11/21 03:49:10;;;;;;;11.77;7.10;;;5.40;99.90;;;;;;5026587;28;20238;-54
2023/11/21 03:51:36;;;;;;;13.98;6.60;;;5.30;99.90;;;;;;5024503;28;20022;-54
2023/11/21 03:54:02;;;;;;;11.55;7.72;;;5.30;99.90;;;;;;5021311;28;20033;-53
2023/11/21 03:56:28;;;;;;;11.35;6.45;;;5.30;99.90;;;;;;5023074;28;20133;-55
2023/11/21 03:58:53;;;;;;;9.93;6.20;;;5.30;99.90;;;;;;5027240;28;20116;-53
2023/11/21 04:01:24;;;;;;;11.40;5.80;;;5.20;99.90;;;;;;5022969;28;20493;-52
2023/11/21 04:03:50;;;;;;;8.98;5.68;;;5.20;99.90;;;;;;5023118;28;20127;-55
2023/11/21 04:06:17;;;;;;;9.95;6.32;;;5.10;99.90;;;;;;5021145;28;20036;-50
2023/11/21 04:08:44;;;;;;;8.15;4.90;;;5.10;99.90;;;;;;5027073;28;20313;-54
2023/11/21 04:11:11;;;;;;;9.40;5.97;;;5.00;99.90;;;;;;5017060;28;20036;-52
2023/11/21 04:13:38;;;;;;;8.27;4.90;;;5.00;99.90;;;;;;5017411;28;20026;-55
2023/11/21 04:16:04;;;;;;;11.23;5.10;;;4.90;99.90;;;;;;5023797;28;20021;-55
2023/11/21 04:18:30;;;;;;;9.07;5.10;;;4.90;99.90;;;;;;5023103;28;20099;-54
2023/11/21 04:20:55;;;;;;;8.50;5.30;;;4.80;99.90;;;;;;5020975;28;20052;-54
2023/11/21 04:23:21;;;;;;;8.38;4.53;;;4.80;99.90;;;;;;5017456;28;20026;-52
2023/11/21 04:25:46;;;;;;;9.15;5.18;;;4.70;99.90;;;;;;5017384;28;20029;-52
2023/11/21 04:28:12;;;;;;;7.90;5.20;;;4.70;99.90;;;;;;5016526;28;20634;-54
2023/11/21 04:30:39;;;;;;;8.57;4.50;;;4.70;99.90;;;;;;5017635;28;20024;-53
2023/11/21 04:33:04;;;;;;;6.95;4.53;;;4.60;99.90;;;;;;5021440;28;20026;-56
2023/11/21 04:35:30;;;;;;;6.80;4.45;;;4.60;99.90;;;;;;5024867;28;20041;-56
2023/11/21 04:37:57;;;;;;;6.72;4.65;;;4.60;99.90;;;;;;5018859;28;20052;-53
2023/11/21 04:40:22;;;;;;;5.78;4.28;;;4.60;99.90;;;;;;5015204;28;20037;-55
2023/11/21 04:42:48;;;;;;;7.47;4.85;;;4.60;99.90;;;;;;5016740;28;20045;-53
2023/11/21 04:45:13;;;;;;;6.35;4.10;;;4.50;99.90;;;;;;5016765;28;20021;-55
2023/11/21 04:47:39;;;;;;;8.18;4.75;;;4.50;99.90;;;;;;5025471;28;20033;-53
2023/11/21 04:50:05;;;;;;;8.38;4.82;;;4.50;99.90;;;;;;5019559;28;20091;-56
2023/11/21 04:52:32;;;;;;;10.07;5.65;;;4.50;99.90;;;;;;5025502;28;20029;-53
2023/11/21 04:54:58;;;;;;;9.85;5.30;;;4.50;99.90;;;;;;5025728;28;20017;-54
2023/11/21 04:57:24;;;;;;;7.57;4.93;;;4.50;99.90;;;;;;5028018;28;20021;-52
2023/11/21 04:59:50;;;;;;;7.90;5.05;;;4.50;99.90;;;;;;5022492;28;20029;-53
2023/11/21 05:02:15;;;;;;;12.52;5.90;;;4.50;99.90;;;;;;5021838;28;20109;-56
2023/11/21 05:04:42;;;;;;;10.75;5.63;;;4.50;99.90;;;;;;5018772;28;20481;-55
2023/11/21 05:07:08;;;;;;;9.52;5.60;;;4.50;99.90;;;;;;5016509;28;20022;-56
2023/11/21 05:09:34;;;;;;;14.98;7.03;;;4.40;99.90;;;;;;5019517;28;20065;-53
2023/11/21 05:12:00;;;;;;;11.98;6.70;;;4.40;99.90;;;;;;5032609;28;20032;-57
2023/11/21 05:14:25;;;;;;;12.00;6.30;;;4.40;99.90;;;;;;5018637;28;20026;-54
2023/11/21 05:16:51;;;;;;;13.50;6.15;;;4.40;99.90;;;;;;5016949;28;20014;-55
2023/11/21 05:19:17;;;;;;;15.90;7.10;;;4.40;99.90;;;;;;5013672;28;20030;-55
2023/11/21 05:21:42;;;;;;;14.27;7.13;;;4.40;99.90;;;;;;5016172;28;20195;-55
2023/11/21 05:24:08;;;;;;;10.15;5.57;;;4.50;99.90;;;;;;5018193;28;20032;-54
2023/11/21 05:26:34;;;;;;;14.40;6.60;;;4.40;99.90;;;;;;5013890;28;20022;-54
2023/11/21 05:28:59;;;;;;;15.20;7.97;;;4.40;99.90;;;;;;5016353;28;20092;-54
2023/11/21 05:31:25;;;;;;;11.07;5.95;;;4.40;99.90;;;;;;5014485;28;20034;-55
2023/11/21 05:33:50;;;;;;;11.45;6.90;;;4.40;99.90;;;;;;5018216;28;20547;-53
2023/11/21 05:36:16;;;;;;;11.50;6.65;;;4.40;99.90;;;;;;5012554;28;20109;-53
2023/11/21 05:38:41;;;;;;;8.48;5.78;;;4.40;99.90;;;;;;5017536;28;20045;-51
2023/11/21 05:41:08;;;;;;;10.10;6.30;;;4.50;99.90;;;;;;5011999;28;20494;-55
2023/11/21 05:43:35;;;;;;;11.27;6.53;;;4.50;99.90;;;;;;5019383;28;20489;-52
2023/11/21 05:46:01;;;;;;;8.45;5.05;;;4.50;99.90;;;;;;5016471;28;20477;-52
2023/11/21 05:48:26;;;;;;;11.57;6.25;;;4.50;99.90;;;;;;5022018;28;20084;-55
2023/11/21 05:50:52;;;;;;;9.75;5.03;;;4.50;99.90;;;;;;5021271;28;20025;-55
2023/11/21 05:53:17;;;;;;;10.82;5.68;;;4.50;99.90;;;;;;5016177;28;20033;-52
2023/11/21 05:55:43;;;;;;;8.98;4.53;;;4.50;99.90;;;;;;5013123;28;20025;-55
2023/11/21 05:58:09;;;;;;;7.45;4.32;;;4.60;99.90;;;;;;5015339;28;20033;-56
2023/11/21 06:00:34;;;;;;;9.68;4.90;;;4.60;99.90;;;;;;5016790;28;20105;-56
2023/11/21 06:03:00;;;;;;;6.47;4.15;;;4.60;99.90;;;;;;5012712;28;20030;-54
2023/11/21 06:05:26;;;;;;;8.38;5.03;;;4.60;99.90;;;;;;5016895;28;20022;-55
2023/11/21 06:07:53;;;;;;;10.15;5.18;;;4.60;99.90;;;;;;5016293;28;20017;-56
2023/11/21 06:10:21;;;;;;;8.50;4.97;;;4.60;99.90;;;;;;5013822;28;20041;-55
2023/11/21 06:12:46;;;;;;;8.15;5.10;;;4.60;99.90;;;;;;5014502;28;20025;-55
2023/11/21 06:15:16;;;;;;;10.52;5.60;;;4.60;99.90;;;;;;5014615;28;20409;-55
2023/11/21 06:17:42;;;;;;;9.15;5.00;;;4.60;99.90;;;;;;5013698;28;20477;-54
2023/11/21 06:20:11;;;;;;;14.60;6.40;;;4.60;99.90;;;;;;5013637;28;20551;-54
2023/11/21 06:22:44;;;;;;;10.30;6.15;;;4.60;99.90;;;;;;5013274;28;20049;-56
2023/11/21 06:25:11;;;;;;;21.30;8.27;;;4.60;99.90;;;;;;5011186;28;20029;-54
2023/11/21 06:27:39;;;;;;;19.98;8.02;;;4.60;99.90;;;;;;5014911;28;20040;-56
2023/11/21 06:30:06;;;;;;;19.45;7.35;;;4.50;99.90;;;;;;5014495;28;20423;-55
2023/11/21 06:32:32;;;;;;;25.77;11.35;;;4.60;99.90;;;;;;5019390;28;20040;-54
2023/11/21 06:35:00;;;;;;;18.50;7.68;;;4.60;99.90;;;;;;5016420;28;20014;-54
2023/11/21 06:37:27;;;;;;;18.30;8.48;;;4.60;99.90;;;;;;5008135;28;20246;-55
2023/11/21 06:39:53;;;;;;;20.38;8.65;;;4.60;99.90;;;;;;5009513;28;20512;-54
2023/11/21 06:42:22;;;;;;;25.17;8.60;;;4.60;99.90;;;;;;5025147;28;20042;-53
2023/11/21 06:44:48;;;;;;;30.35;11.32;;;4.60;99.90;;;;;;5020500;28;20414;-55
2023/11/21 06:47:14;;;;;;;37.65;14.43;;;4.60;99.90;;;;;;5012649;28;20036;-56
2023/11/21 06:49:42;;;;;;;38.58;14.35;;;4.60;99.90;;;;;;5014963;28;20032;-54
2023/11/21 06:52:08;;;;;;;38.70;13.07;;;4.60;99.90;;;;;;5021004;28;20400;-55
2023/11/21 06:54:34;;;;;;;39.92;14.27;;;4.50;99.90;;;;;;5012628;28;20021;-53
2023/11/21 06:57:00;;;;;;;38.28;14.27;;;4.50;99.90;;;;;;5017950;28;20112;-54
2023/11/21 06:59:25;;;;;;;41.80;15.98;;;4.50;99.90;;;;;;5015325;28;20032;-54
2023/11/21 07:01:51;;;;;;;48.97;16.85;;;4.50;99.90;;;;;;5020696;28;20036;-50
2023/11/21 07:04:18;;;;;;;37.28;14.75;;;4.50;99.90;;;;;;5017298;28;20029;-52
2023/11/21 07:06:43;;;;;;;36.38;12.57;;;4.50;99.90;;;;;;5023391;28;20016;-52
2023/11/21 07:09:11;;;;;;;34.30;12.30;;;4.50;99.90;;;;;;5022431;28;20473;-55
2023/11/21 07:11:37;;;;;;;33.53;12.02;;;4.50;99.90;;;;;;5014670;28;20022;-53
2023/11/21 07:14:07;;;;;;;31.92;12.98;;;4.50;99.90;;;;;;5021869;28;20021;-56
2023/11/21 07:16:39;;;;;;;31.90;11.15;;;4.50;99.90;;;;;;5019639;28;20034;-55
2023/11/21 07:19:08;;;;;;;25.33;10.25;;;4.40;99.90;;;;;;5016989;28;20674;-56
2023/11/21 07:21:34;;;;;;;26.35;10.65;;;4.40;99.90;;;;;;5017517;28;20057;-52
2023/11/21 07:24:03;;;;;;;26.17;10.60;;;4.50;99.90;;;;;;5024767;28;20033;-55
2023/11/21 07:26:29;;;;;;;28.35;11.00;;;4.40;99.90;;;;;;5017166;28;20071;-54
2023/11/21 07:28:55;;;;;;;30.08;11.70;;;4.50;99.90;;;;;;5019335;28;20598;-53
2023/11/21 07:31:21;;;;;;;29.90;11.13;;;4.50;99.90;;;;;;5015344;28;20596;-55
2023/11/21 07:33:47;;;;;;;26.27;9.57;;;4.40;99.90;;;;;;5019703;28;20061;-56
2023/11/21 07:36:14;;;;;;;21.00;8.43;;;4.40;99.90;;;;;;5015867;28;20262;-53
2023/11/21 07:38:39;;;;;;;17.75;8.40;;;4.50;99.90;;;;;;5017889;28;20033;-56
2023/11/21 07:41:07;;;;;;;19.05;8.95;;;4.50;99.90;;;;;;5017260;28;20390;-54
2023/11/21 07:43:35;;;;;;;20.38;7.97;;;4.50;99.90;;;;;;5013557;28;20041;-56
2023/11/21 07:46:04;;;;;;;17.38;6.82;;;4.40;99.90;;;;;;5022211;28;20025;-56
2023/11/21 07:48:31;;;;;;;16.70;7.05;;;4.50;99.90;;;;;;5015203;28;20033;-56
2023/11/21 07:50:58;;;;;;;20.00;7.10;;;4.50;99.90;;;;;;5016301;28;20490;-56
2023/11/21 07:53:25;;;;;;;14.75;6.43;;;4.50;99.90;;;;;;5014367;28;20033;-55
2023/11/21 07:55:51;;;;;;;14.95;6.30;;;4.50;99.90;;;;;;5019144;28;20029;-54
2023/11/21 07:58:16;;;;;;;17.30;6.45;;;4.50;99.90;;;;;;5018759;28;20112;-54
2023/11/21 08:00:42;;;;;;;17.15;6.60;;;4.40;99.90;;;;;;5018906;28;20034;-55
2023/11/21 08:03:07;;;;;;;16.55;6.88;;;4.50;99.90;;;;;;5018865;28;20075;-55
2023/11/21 08:05:33;;;;;;;17.77;7.30;;;4.50;99.90;;;;;;5020579;28;20028;-52
2023/11/21 08:07:58;;;;;;;12.30;5.70;;;4.40;99.90;;;;;;5018872;28;20370;-56
2023/11/21 08:10:24;;;;;;;11.48;6.10;;;4.40;99.90;;;;;;5015056;28;20109;-54
2023/11/21 08:12:50;;;;;;;12.45;5.47;;;4.40;99.90;;;;;;5020977;28;20150;-55
2023/11/21 08:15:16;;;;;;;13.82;5.68;;;4.40;99.90;;;;;;5016116;28;20552;-55
2023/11/21 08:17:41;;;;;;;10.02;4.97;;;4.40;99.90;;;;;;5017273;28;20033;-56
2023/11/21 08:20:08;;;;;;;8.80;4.40;;;4.40;99.90;;;;;;5024473;28;20112;-55
2023/11/21 08:22:36;;;;;;;6.22;3.55;;;4.40;99.90;;;;;;5025717;28;20237;-55
2023/11/21 08:25:04;;;;;;;8.40;4.30;;;4.40;99.90;;;;;;5019261;28;20025;-53
2023/11/21 08:27:29;;;;;;;5.00;3.13;;;4.40;99.90;;;;;;5021495;28;20029;-53
2023/11/21 08:29:56;;;;;;;6.70;3.95;;;4.40;99.90;;;;;;5023205;28;20029;-55
2023/11/21 08:32:21;;;;;;;6.78;3.40;;;4.50;99.90;;;;;;5015510;28;20045;-60
2023/11/21 08:34:50;;;;;;;5.95;3.10;;;4.50;99.90;;;;;;5023718;28;20022;-59
2023/11/21 08:37:16;;;;;;;4.45;3.40;;;4.50;99.90;;;;;;5018378;28;20049;-71
2023/11/21 08:39:43;;;;;;;5.85;2.75;;;4.60;99.90;;;;;;5022707;28;20032;-71
2023/11/21 08:42:08;;;;;;;4.93;2.95;;;4.50;99.90;;;;;;5026068;28;20468;-70
2023/11/21 08:44:34;;;;;;;3.97;3.05;;;4.60;99.90;;;;;;5022600;28;20158;-71
2023/11/21 08:46:59;;;;;;;5.55;2.45;;;4.60;99.90;;;;;;5018002;28;20087;-70
2023/11/21 08:49:27;;;;;;;4.07;2.78;;;4.60;99.90;;;;;;5021835;28;20238;-71
2023/11/21 08:51:55;;;;;;;5.15;2.80;;;4.60;99.90;;;;;;5025922;28;20635;-70
2023/11/21 08:54:20;;;;;;;3.72;2.70;;;4.50;99.90;;;;;;5022466;28;20033;-71
2023/11/21 08:56:46;;;;;;;3.38;2.30;;;4.50;99.90;;;;;;5025986;28;20025;-71
2023/11/21 08:59:14;;;;;;;3.55;2.08;;;4.50;99.90;;;;;;5021818;28;20044;-71
2023/11/21 09:01:40;;;;;;;3.83;2.33;;;4.50;99.90;;;;;;5021665;28;20026;-71
2023/11/21 09:04:06;;;;;;;3.17;1.98;;;4.50;99.90;;;;;;5021595;28;20018;-71
2023/11/21 09:06:31;;;;;;;3.15;2.15;;;4.50;99.90;;;;;;5020365;28;20029;-71
2023/11/21 09:08:57;;;;;;;3.03;1.85;;;4.60;99.90;;;;;;5021614;28;20495;-71
2023/11/21 09:11:25;;;;;;;2.50;2.22;;;4.60;99.90;;;;;;5025426;28;20449;-71
2023/11/21 09:13:51;;;;;;;2.58;1.67;;;4.60;99.90;;;;;;5021484;28;20485;-71
2023/11/21 09:16:17;;;;;;;2.17;1.77;;;4.60;99.90;;;;;;5025652;28;20508;-71
2023/11/21 09:18:42;;;;;;;1.90;1.42;;;4.50;99.90;;;;;;5021280;28;20025;-71
2023/11/21 09:21:08;;;;;;;1.95;1.45;;;4.50;99.90;;;;;;5021035;28;20033;-70
2023/11/21 09:23:35;;;;;;;3.75;1.45;;;4.40;99.90;;;;;;5021495;28;20451;-72
2023/11/21 09:26:01;;;;;;;2.58;1.50;;;4.40;99.90;;;;;;5025305;28;20485;-71
2023/11/21 09:28:27;;;;;;;2.03;1.10;;;4.40;99.90;;;;;;5026976;28;20072;-71
2023/11/21 09:30:53;;;;;;;2.50;1.67;;;4.40;99.90;;;;;;5021875;28;20492;-71
2023/11/21 09:33:19;;;;;;;2.72;1.60;;;4.40;99.90;;;;;;5025345;28;20045;-71
2023/11/21 09:35:44;;;;;;;3.13;1.50;;;4.30;99.90;;;;;;5020644;28;20079;-72
2023/11/21 09:38:10;;;;;;;1.70;1.60;;;4.30;99.90;;;;;;5015363;28;20048;-71
2023/11/21 09:40:37;;;;;;;3.10;1.70;;;4.30;99.90;;;;;;5018451;28;20110;-71
2023/11/21 09:43:17;;;;;;;2.25;1.50;;;4.20;99.90;;;;;;5024221;28;20241;-71
2023/11/21 09:45:46;;;;;;;3.55;1.58;;;4.20;99.90;;;;;;5022208;28;20032;-71
2023/11/21 09:48:14;;;;;;;3.53;1.80;;;4.20;99.90;;;;;;5019003;28;20104;-71
2023/11/21 09:50:42;;;;;;;2.13;1.50;;;4.20;99.90;;;;;;5019343;28;20018;-71
2023/11/21 09:53:18;;;;;;;1.42;1.27;;;4.20;99.90;;;;;;5023113;28;20021;-71
2023/11/21 09:55:45;;;;;;;2.53;1.65;;;4.10;99.90;;;;;;5019099;28;20033;-71
2023/11/21 09:58:14;;;;;;;1.75;1.63;;;4.10;99.90;;;;;;5018387;28;20041;-71
2023/11/21 10:00:44;;;;;;;2.00;1.55;;;4.20;99.90;;;;;;5022670;28;20040;-71
2023/11/21 10:03:11;;;;;;;2.72;1.63;;;4.20;99.90;;;;;;5022499;28;20441;-71
2023/11/21 10:05:38;;;;;;;3.05;1.98;;;4.30;99.90;;;;;;5024410;28;20022;-71
2023/11/21 10:08:08;;;;;;;3.38;1.75;;;4.30;99.90;;;;;;5022942;28;20048;-71
2023/11/21 10:10:36;;;;;;;2.10;1.80;;;4.30;99.90;;;;;;5017174;28;20036;-70
2023/11/21 10:13:06;;;;;;;2.78;1.50;;;4.30;99.90;;;;;;5020538;28;20025;-71
2023/11/21 10:15:34;;;;;;;3.53;2.17;;;4.30;99.90;;;;;;5018102;28;20072;-71
2023/11/21 10:18:02;;;;;;;3.03;1.83;;;4.30;99.90;;;;;;5024533;28;20397;-70
2023/11/21 10:20:29;;;;;;;2.58;1.88;;;4.20;99.90;;;;;;5020337;28;20096;-71
2023/11/21 10:22:56;;;;;;;2.80;2.05;;;4.20;99.90;;;;;;5013008;28;20030;-70
2023/11/21 10:25:22;;;;;;;2.05;1.40;;;4.20;99.90;;;;;;5024355;28;20033;-70
2023/11/21 10:27:52;;;;;;;3.10;1.52;;;4.10;99.90;;;;;;5022881;28;20393;-71
2023/11/21 10:30:18;;;;;;;3.28;1.80;;;4.10;99.90;;;;;;5020163;28;20037;-71
2023/11/21 10:32:44;;;;;;;2.80;1.67;;;4.00;99.90;;;;;;5020359;28;20108;-69
2023/11/21 10:35:10;;;;;;;1.27;1.17;;;4.00;99.90;;;;;;5021878;28;20033;-71
2023/11/21 10:37:40;;;;;;;2.95;1.60;;;4.00;99.90;;;;;;5014188;28;20045;-71
2023/11/21 10:40:12;;;;;;;2.13;1.40;;;3.90;99.90;;;;;;5016012;28;20485;-71
2023/11/21 10:42:41;;;;;;;3.67;1.77;;;3.90;99.90;;;;;;5021999;28;20035;-70
2023/11/21 10:45:14;;;;;;;2.60;1.70;;;3.90;99.90;;;;;;5019319;28;20559;-71
2023/11/21 10:47:41;;;;;;;1.60;1.30;;;3.90;99.90;;;;;;5019611;28;20025;-70
2023/11/21 10:50:10;;;;;;;2.28;1.50;;;3.90;99.90;;;;;;5016033;28;20030;-70
2023/11/21 10:52:39;;;;;;;2.22;1.58;;;3.90;99.90;;;;;;5024378;28;20605;-70
2023/11/21 10:55:16;;;;;;;2.00;1.88;;;3.90;99.90;;;;;;5028551;28;20039;-70
2023/11/21 10:57:43;;;;;;;2.45;1.90;;;3.90;99.90;;;;;;5021682;28;20029;-71
2023/11/21 11:00:13;;;;;;;2.78;1.58;;;3.90;99.90;;;;;;5019625;28;20429;-70
2023/11/21 11:02:39;;;;;;;2.17;1.50;;;4.00;99.90;;;;;;5023652;28;20652;-70
2023/11/21 11:05:06;;;;;;;3.22;1.50;;;4.00;99.90;;;;;;5018559;28;20025;-71
2023/11/21 11:07:34;;;;;;;4.38;1.77;;;4.00;99.90;;;;;;5016272;28;20017;-71
2023/11/21 11:10:00;;;;;;;2.20;1.55;;;4.00;99.90;;;;;;5022292;28;20017;-71
2023/11/21 11:12:25;;;;;;;1.83;1.33;;;4.00;99.90;;;;;;5018414;28;20465;-71
2023/11/21 11:14:52;;;;;;;2.10;1.50;;;4.00;99.90;;;;;;5018545;28;20026;-71
2023/11/21 11:17:20;;;;;;;2.92;1.55;;;3.90;99.90;;;;;;5023390;28;20449;-71
2023/11/21 11:19:46;;;;;;;5.80;1.83;;;3.90;99.90;;;;;;5019559;28;20021;-72
2023/11/21 11:22:38;;;;;;;2.50;1.80;;;3.90;99.90;;;;;;5019980;28;20037;-71
2023/11/21 11:25:35;;;;;;;1.52;1.10;;;3.90;99.90;;;;;;5017454;28;20211;-71
2023/11/21 11:28:11;;;;;;;1.92;1.17;;;3.90;99.90;;;;;;5017258;28;20045;-72
2023/11/21 11:30:41;;;;;;;;;;;3.90;99.90;;;;;;5019642;28;20025;-71
2023/11/21 11:33:36;;;;;;;1.52;1.30;;;3.90;99.90;;;;;;5018406;28;19944;-70
2023/11/21 11:36:26;;;;;;;3.03;1.50;;;3.90;99.90;;;;;;5011660;28;20021;-71
2023/11/21 11:38:53;;;;;;;4.63;1.27;;;3.90;99.90;;;;;;5020820;28;20053;-71
2023/11/21 11:41:32;;;;;;;2.40;1.20;;;3.90;99.90;;;;;;5021001;28;20023;-71
2023/11/21 11:43:58;;;;;;;2.40;1.73;;;3.90;99.90;;;;;;5020733;28;20053;-70
2023/11/21 11:46:41;;;;;;;3.88;1.40;;;3.90;99.90;;;;;;5018768;28;20029;-70
2023/11/21 11:49:07;;;;;;;1.98;1.23;;;3.90;99.90;;;;;;5016437;28;20033;-71
2023/11/21 11:51:35;;;;;;;3.20;1.63;;;3.90;99.90;;;;;;5020126;28;20123;-71
2023/11/21 11:54:01;;;;;;;1.90;1.30;;;3.90;99.90;;;;;;5019807;28;20020;-70
2023/11/21 11:56:26;;;;;;;1.70;1.30;;;3.90;99.90;;;;;;5015244;28;20026;-71
2023/11/21 11:58:57;;;;;;;2.47;1.63;;;3.90;99.90;;;;;;5026757;28;20414;-70
2023/11/21 12:01:27;;;;;;;2.25;1.35;;;3.90;99.90;;;;;;5023004;28;20087;-70
2023/11/21 12:04:24;;;;;;;2.63;1.58;;;3.90;99.90;;;;;;5022850;28;20017;-70
2023/11/21 12:06:52;;;;;;;3.33;1.80;;;4.00;99.90;;;;;;5020827;28;20554;-72
2023/11/21 12:09:22;;;;;;;1.95;1.67;;;4.10;99.90;;;;;;5020620;28;20025;-70
2023/11/21 12:11:49;;;;;;;1.73;1.50;;;4.20;99.90;;;;;;5024601;28;20021;-70
2023/11/21 12:14:15;;;;;;;2.45;1.63;;;4.20;99.90;;;;;;5022849;28;20033;-70
2023/11/21 12:16:42;;;;;;;1.75;1.42;;;4.20;99.90;;;;;;5022735;28;20028;-70
2023/11/21 12:19:08;;;;;;;3.15;1.67;;;4.20;99.90;;;;;;5022989;28;20074;-68
2023/11/21 12:21:34;;;;;;;2.75;1.63;;;4.10;99.90;;;;;;5022371;28;20124;-71
2023/11/21 12:24:00;;;;;;;4.45;1.95;;;4.10;99.90;;;;;;5022576;28;20028;-70
2023/11/21 12:26:27;;;;;;;2.58;1.50;;;4.20;99.90;;;;;;5024142;28;20025;-71
2023/11/21 12:28:55;;;;;;;4.00;1.92;;;4.10;99.90;;;;;;5020329;28;20164;-71
2023/11/21 12:31:21;;;;;;;3.33;2.03;;;4.10;99.90;;;;;;5022491;28;20122;-71
2023/11/21 12:33:47;;;;;;;3.40;2.10;;;4.10;99.90;;;;;;5027177;28;20025;-71
2023/11/21 12:36:13;;;;;;;4.45;2.25;;;4.00;99.90;;;;;;5020684;28;20389;-71
2023/11/21 12:38:38;;;;;;;2.88;1.95;;;4.00;99.90;;;;;;5022093;28;20401;-71
2023/11/21 12:41:06;;;;;;;7.78;2.00;;;4.00;99.90;;;;;;5022232;28;20064;-71
2023/11/21 12:43:32;;;;;;;3.72;2.45;;;4.00;99.90;;;;;;5021641;28;20030;-72
2023/11/21 12:46:11;;;;;;;4.57;2.63;;;3.90;99.90;;;;;;5023836;28;20021;-71
2023/11/21 12:48:43;;;;;;;5.35;2.67;;;3.80;99.90;;;;;;5020238;28;20034;-71